Time;durP1;ratioP1;P1;durP2;ratioP2;P2;SDS_P1;SDS_P2;PMS_P1;PMS_P2;Temp;Humidity;BMP_temperature;BMP_pressure;BME280_temperature;BME280_humidity;BME280_pressure;Samples;Min_cycle;Max_cycle;Signal;HPM_P1;HPM_P2
2021/03/09 00:01:26;;;;;;;122.10;16.60;;;;;;;;;;5010548;28;20014;-57
2021/03/09 00:03:53;;;;;;;152.50;16.45;;;;;;;;;;5011557;28;20069;-47
2021/03/09 00:06:20;;;;;;;144.65;19.15;;;;;;;;;;4994358;28;20034;-48
2021/03/09 00:08:47;;;;;;;131.45;18.83;;;;;;;;;;5012396;28;20079;-48
2021/03/09 00:11:14;;;;;;;149.77;18.63;;;;;;;;;;5011896;28;20477;-54
2021/03/09 00:13:41;;;;;;;171.80;20.08;;;;;;;;;;5013595;28;20030;-55
2021/03/09 00:16:08;;;;;;;182.80;21.98;;;;;;;;;;5011126;28;20429;-57
2021/03/09 00:18:35;;;;;;;193.77;21.88;;;;;;;;;;5008854;28;20038;-56
2021/03/09 00:21:02;;;;;;;187.27;23.80;;;;;;;;;;5011651;28;20034;-53
2021/03/09 00:23:29;;;;;;;161.50;20.67;;;;;;;;;;5009442;28;20018;-56
2021/03/09 00:25:56;;;;;;;164.85;21.08;;;;;;;;;;5008738;28;20056;-57
2021/03/09 00:28:23;;;;;;;178.07;23.10;;;;;;;;;;5003979;28;20072;-54
2021/03/09 00:30:50;;;;;;;189.07;23.95;;;;;;;;;;4989757;28;20044;-53
2021/03/09 00:33:17;;;;;;;210.88;23.83;;;;;;;;;;5004494;28;20022;-52
2021/03/09 00:35:44;;;;;;;192.43;23.88;;;;;;;;;;5001635;28;20425;-52
2021/03/09 00:38:11;;;;;;;225.35;24.75;;;;;;;;;;5006997;28;20057;-50
2021/03/09 00:40:38;;;;;;;208.55;24.02;;;;;;;;;;5006139;28;20034;-54
2021/03/09 00:43:05;;;;;;;176.30;23.95;;;;;;;;;;5005676;28;20045;-56
2021/03/09 00:45:32;;;;;;;211.60;26.17;;;;;;;;;;5004277;28;20044;-55
2021/03/09 00:47:59;;;;;;;186.07;23.23;;;;;;;;;;4999745;28;20026;-57
2021/03/09 00:50:27;;;;;;;182.05;23.08;;;;;;;;;;5003900;28;20030;-53
2021/03/09 00:52:54;;;;;;;174.27;22.27;;;;;;;;;;5006675;28;20450;-50
2021/03/09 00:55:21;;;;;;;229.07;25.98;;;;;;;;;;5004482;28;20037;-53
2021/03/09 00:57:55;;;;;;;175.27;23.80;;;;;;;;;;4998135;28;20029;-51
2021/03/09 01:00:23;;;;;;;223.27;26.80;;;;;;;;;;4993581;28;20033;-52
2021/03/09 01:02:50;;;;;;;201.45;26.48;;;;;;;;;;5006355;28;20458;-52
2021/03/09 01:05:17;;;;;;;188.57;24.58;;;;;;;;;;5005267;28;20633;-50
2021/03/09 01:07:45;;;;;;;237.00;29.95;;;;;;;;;;5002724;28;20034;-49
2021/03/09 01:10:13;;;;;;;206.43;26.95;;;;;;;;;;5003831;28;20428;-51
2021/03/09 01:12:40;;;;;;;195.25;25.83;;;;;;;;;;5010341;28;20033;-51
2021/03/09 01:15:07;;;;;;;169.90;21.65;;;;;;;;;;5010067;28;20351;-49
2021/03/09 01:17:35;;;;;;;146.00;19.35;;;;;;;;;;4997407;28;20049;-49
2021/03/09 01:20:02;;;;;;;122.57;18.13;;;;;;;;;;5006095;28;20030;-54
2021/03/09 01:22:30;;;;;;;125.13;17.15;;;;;;;;;;5008040;28;20030;-57
2021/03/09 01:24:57;;;;;;;104.57;13.85;;;;;;;;;;5003483;28;20153;-60
2021/03/09 01:27:24;;;;;;;108.20;11.73;;;;;;;;;;5008255;28;20060;-54
2021/03/09 01:29:51;;;;;;;86.28;11.52;;;;;;;;;;5004954;28;20049;-57
2021/03/09 01:32:18;;;;;;;76.47;9.52;;;;;;;;;;4988584;28;20108;-51
2021/03/09 01:34:45;;;;;;;85.18;8.85;;;;;;;;;;5001679;28;20040;-54
2021/03/09 01:37:13;;;;;;;65.75;8.35;;;;;;;;;;4997487;28;20030;-50
2021/03/09 01:39:40;;;;;;;67.40;7.32;;;;;;;;;;5003397;28;20399;-54
2021/03/09 01:42:07;;;;;;;66.72;7.25;;;;;;;;;;5005291;28;20397;-53
2021/03/09 01:44:35;;;;;;;59.40;7.63;;;;;;;;;;5005772;28;20030;-49
2021/03/09 01:47:02;;;;;;;50.25;7.15;;;;;;;;;;5003146;28;20022;-52
2021/03/09 01:49:31;;;;;;;63.58;7.72;;;;;;;;;;4997871;28;20157;-49
2021/03/09 01:51:58;;;;;;;58.63;7.28;;;;;;;;;;5002538;28;20083;-51
2021/03/09 01:54:25;;;;;;;57.40;6.65;;;;;;;;;;5000678;28;20022;-54
2021/03/09 01:56:53;;;;;;;56.22;6.60;;;;;;;;;;5000918;28;20026;-54
2021/03/09 01:59:22;;;;;;;50.53;6.63;;;;;;;;;;5001857;28;20023;-52
2021/03/09 02:01:50;;;;;;;59.45;7.85;;;;;;;;;;4991775;28;20030;-50
2021/03/09 02:04:17;;;;;;;51.85;5.28;;;;;;;;;;4994521;28;20080;-52
2021/03/09 02:06:44;;;;;;;53.10;6.43;;;;;;;;;;5004978;28;20026;-52
2021/03/09 02:09:12;;;;;;;58.80;6.53;;;;;;;;;;5008168;28;20034;-56
2021/03/09 02:11:45;;;;;;;48.50;5.70;;;;;;;;;;4991127;28;20038;-52
2021/03/09 02:14:15;;;;;;;39.05;5.65;;;;;;;;;;5001154;28;20030;-52
2021/03/09 02:16:50;;;;;;;51.25;6.57;;;;;;;;;;4995227;28;20153;-56
2021/03/09 02:19:35;;;;;;;49.40;6.43;;;;;;;;;;4993482;28;20018;-52
2021/03/09 02:22:06;;;;;;;47.28;6.13;;;;;;;;;;4994181;28;20056;-55
2021/03/09 02:24:45;;;;;;;37.03;4.40;;;;;;;;;;4984971;28;20197;-55
2021/03/09 02:27:26;;;;;;;37.67;5.85;;;;;;;;;;4993455;28;20545;-54
2021/03/09 02:30:06;;;;;;;46.33;5.65;;;;;;;;;;4997559;28;20093;-54
2021/03/09 02:32:38;;;;;;;40.38;5.05;;;;;;;;;;5001053;28;20060;-54
2021/03/09 02:35:05;;;;;;;36.45;4.82;;;;;;;;;;5010961;28;20105;-50
2021/03/09 02:37:34;;;;;;;35.55;5.97;;;;;;;;;;5011557;28;20026;-52
2021/03/09 02:40:02;;;;;;;42.00;5.20;;;;;;;;;;5006319;28;20037;-54
2021/03/09 02:42:31;;;;;;;38.28;5.05;;;;;;;;;;4991670;28;20049;-52
2021/03/09 02:45:00;;;;;;;35.72;4.28;;;;;;;;;;5008537;28;20489;-52
2021/03/09 02:47:28;;;;;;;42.25;4.53;;;;;;;;;;5010782;28;20100;-53
2021/03/09 02:49:55;;;;;;;41.28;4.00;;;;;;;;;;5012206;28;20025;-53
2021/03/09 02:52:26;;;;;;;32.38;3.92;;;;;;;;;;5011905;28;20300;-53
2021/03/09 02:54:53;;;;;;;42.58;4.85;;;;;;;;;;5012139;28;20088;-55
2021/03/09 02:57:21;;;;;;;40.95;4.63;;;;;;;;;;5012434;28;20038;-55
2021/03/09 02:59:48;;;;;;;31.88;4.20;;;;;;;;;;4994696;28;20022;-55
2021/03/09 03:02:17;;;;;;;34.92;4.07;;;;;;;;;;5011313;28;20083;-50
2021/03/09 03:04:46;;;;;;;34.03;4.32;;;;;;;;;;5010062;28;20498;-52
2021/03/09 03:07:13;;;;;;;36.92;4.38;;;;;;;;;;5011776;28;20030;-53
2021/03/09 03:09:41;;;;;;;40.53;4.70;;;;;;;;;;5011201;28;20033;-53
2021/03/09 03:12:08;;;;;;;37.75;4.20;;;;;;;;;;5012549;28;20029;-53
2021/03/09 03:14:36;;;;;;;31.55;4.03;;;;;;;;;;5011723;28;20018;-52
2021/03/09 03:17:03;;;;;;;39.30;4.22;;;;;;;;;;5012377;28;20022;-53
2021/03/09 03:19:31;;;;;;;48.65;4.82;;;;;;;;;;5011897;28;20022;-52
2021/03/09 03:21:59;;;;;;;40.20;4.35;;;;;;;;;;5012580;28;20107;-53
2021/03/09 03:24:27;;;;;;;54.00;4.40;;;;;;;;;;5011782;28;20030;-52
2021/03/09 03:26:54;;;;;;;31.50;4.55;;;;;;;;;;5012367;28;20018;-52
2021/03/09 03:29:21;;;;;;;30.88;4.22;;;;;;;;;;5011770;28;20478;-49
2021/03/09 03:31:51;;;;;;;34.28;4.45;;;;;;;;;;5012389;28;20022;-53
2021/03/09 03:34:18;;;;;;;33.78;4.78;;;;;;;;;;5012121;28;20018;-53
2021/03/09 03:36:45;;;;;;;31.98;4.85;;;;;;;;;;5011652;28;20084;-52
2021/03/09 03:39:13;;;;;;;43.70;4.68;;;;;;;;;;5012434;28;20552;-53
2021/03/09 03:41:40;;;;;;;34.25;4.13;;;;;;;;;;5011559;28;20069;-49
2021/03/09 03:44:07;;;;;;;32.35;3.38;;;;;;;;;;5011759;28;20026;-52
2021/03/09 03:46:34;;;;;;;40.03;4.60;;;;;;;;;;5011821;28;20080;-49
2021/03/09 03:49:02;;;;;;;32.42;3.85;;;;;;;;;;5011864;28;20097;-49
2021/03/09 03:51:38;;;;;;;44.50;4.20;;;;;;;;;;5011710;28;20381;-52
2021/03/09 03:54:21;;;;;;;34.42;4.10;;;;;;;;;;5012036;28;20064;-53
2021/03/09 03:56:47;;;;;;;;;;;;;;;;;;5012634;28;20029;-53
2021/03/09 03:59:37;;;;;;;33.45;4.13;;;;;;;;;;5012113;28;20569;-50
2021/03/09 04:02:05;;;;;;;33.97;4.35;;;;;;;;;;5001769;28;20259;-48
2021/03/09 04:04:33;;;;;;;27.35;3.65;;;;;;;;;;5011700;28;20108;-52
2021/03/09 04:07:01;;;;;;;35.25;4.00;;;;;;;;;;5011557;28;20447;-52
2021/03/09 04:09:28;;;;;;;36.90;4.35;;;;;;;;;;5011949;28;20049;-48
2021/03/09 04:11:57;;;;;;;30.25;3.97;;;;;;;;;;5011569;28;20030;-53
2021/03/09 04:14:24;;;;;;;33.47;3.08;;;;;;;;;;5011193;28;20025;-50
2021/03/09 04:16:53;;;;;;;31.67;3.63;;;;;;;;;;5011485;28;20497;-49
2021/03/09 04:19:21;;;;;;;34.70;3.35;;;;;;;;;;5011921;28;20026;-48
2021/03/09 04:21:49;;;;;;;28.58;3.83;;;;;;;;;;4997314;28;20030;-52
2021/03/09 04:24:17;;;;;;;30.80;3.53;;;;;;;;;;5015475;28;20107;-48
2021/03/09 04:26:45;;;;;;;19.05;3.00;;;;;;;;;;5014755;28;20066;-48
2021/03/09 04:29:12;;;;;;;21.35;2.88;;;;;;;;;;5015470;28;20026;-51
2021/03/09 04:31:40;;;;;;;27.23;3.33;;;;;;;;;;5015368;28;20018;-53
2021/03/09 04:34:07;;;;;;;30.58;3.22;;;;;;;;;;5014943;28;20032;-48
2021/03/09 04:36:35;;;;;;;20.15;3.38;;;;;;;;;;4997258;28;20101;-50
2021/03/09 04:39:04;;;;;;;21.60;3.22;;;;;;;;;;5014797;28;20026;-50
2021/03/09 04:41:31;;;;;;;37.50;4.07;;;;;;;;;;5015021;28;20169;-49
2021/03/09 04:44:01;;;;;;;26.23;3.15;;;;;;;;;;5014590;28;20057;-53
2021/03/09 04:46:29;;;;;;;27.90;3.15;;;;;;;;;;5014890;28;20030;-49
2021/03/09 04:48:56;;;;;;;29.90;3.88;;;;;;;;;;5014622;28;20024;-51
2021/03/09 04:51:24;;;;;;;29.38;2.90;;;;;;;;;;5014901;28;20053;-49
2021/03/09 04:53:51;;;;;;;23.95;2.83;;;;;;;;;;5014522;28;20101;-53
2021/03/09 04:56:19;;;;;;;25.90;3.10;;;;;;;;;;5014806;28;20069;-50
2021/03/09 04:58:46;;;;;;;30.02;2.95;;;;;;;;;;5014531;28;20402;-52
2021/03/09 05:01:13;;;;;;;23.60;3.30;;;;;;;;;;5014777;28;20018;-49
2021/03/09 05:03:39;;;;;;;22.00;2.72;;;;;;;;;;5014368;28;20026;-53
2021/03/09 05:06:07;;;;;;;15.10;2.53;;;;;;;;;;5014235;28;20030;-49
2021/03/09 05:08:33;;;;;;;12.32;2.00;;;;;;;;;;5014245;28;20030;-49
2021/03/09 05:11:00;;;;;;;20.13;2.95;;;;;;;;;;5014840;28;20032;-49
2021/03/09 05:13:27;;;;;;;23.77;3.03;;;;;;;;;;5014440;28;20025;-48
2021/03/09 05:15:54;;;;;;;20.88;2.63;;;;;;;;;;5014094;28;20025;-51
2021/03/09 05:18:21;;;;;;;20.17;2.72;;;;;;;;;;5014729;28;20029;-48
2021/03/09 05:20:49;;;;;;;21.05;2.83;;;;;;;;;;5013876;28;20082;-51
2021/03/09 05:23:16;;;;;;;22.30;2.70;;;;;;;;;;5014494;28;20033;-49
2021/03/09 05:25:43;;;;;;;22.90;3.60;;;;;;;;;;5013732;28;20073;-48
2021/03/09 05:28:10;;;;;;;15.73;3.33;;;;;;;;;;5014384;28;20141;-52
2021/03/09 05:30:36;;;;;;;15.27;2.20;;;;;;;;;;5013913;28;20105;-52
2021/03/09 05:33:04;;;;;;;14.38;2.70;;;;;;;;;;5013598;28;20026;-51
2021/03/09 05:35:31;;;;;;;16.52;2.42;;;;;;;;;;5013426;28;20489;-50
2021/03/09 05:37:58;;;;;;;18.50;2.55;;;;;;;;;;5013968;28;20026;-52
2021/03/09 05:40:25;;;;;;;10.40;2.60;;;;;;;;;;5013770;28;20049;-51
2021/03/09 05:42:52;;;;;;;19.98;3.08;;;;;;;;;;5014150;28;20057;-49
2021/03/09 05:45:20;;;;;;;19.02;2.42;;;;;;;;;;5013369;28;20040;-49
2021/03/09 05:47:47;;;;;;;30.35;3.10;;;;;;;;;;5013775;28;20470;-49
2021/03/09 05:50:14;;;;;;;19.42;3.20;;;;;;;;;;5013910;28;20021;-47
2021/03/09 05:52:42;;;;;;;18.27;2.75;;;;;;;;;;5013806;28;20506;-49
2021/03/09 05:55:10;;;;;;;14.32;2.88;;;;;;;;;;5013684;28;20029;-47
2021/03/09 05:57:37;;;;;;;16.48;2.40;;;;;;;;;;5013270;28;20029;-49
2021/03/09 06:00:08;;;;;;;18.13;2.40;;;;;;;;;;5013743;28;20026;-48
2021/03/09 06:02:35;;;;;;;13.60;2.30;;;;;;;;;;5013210;28;20870;-48
2021/03/09 06:05:03;;;;;;;10.52;2.08;;;;;;;;;;5013648;28;20478;-47
2021/03/09 06:07:30;;;;;;;11.45;2.63;;;;;;;;;;5013009;28;20022;-51
2021/03/09 06:09:58;;;;;;;18.92;2.88;;;;;;;;;;5013629;28;20032;-49
2021/03/09 06:12:26;;;;;;;13.02;2.42;;;;;;;;;;5013257;28;20037;-49
2021/03/09 06:14:59;;;;;;;10.10;2.50;;;;;;;;;;5013407;28;20030;-49
2021/03/09 06:17:27;;;;;;;13.63;2.50;;;;;;;;;;5012418;28;20030;-48
2021/03/09 06:19:55;;;;;;;17.00;3.33;;;;;;;;;;5013328;28;20049;-48
2021/03/09 06:22:22;;;;;;;19.58;3.08;;;;;;;;;;5013069;28;20025;-49
2021/03/09 06:24:49;;;;;;;17.42;2.55;;;;;;;;;;5013180;28;20022;-52
2021/03/09 06:27:27;;;;;;;10.32;2.10;;;;;;;;;;5012575;28;20060;-53
2021/03/09 06:29:54;;;;;;;16.35;2.67;;;;;;;;;;5013351;28;20097;-52
2021/03/09 06:32:22;;;;;;;16.38;2.65;;;;;;;;;;5012942;28;20516;-51
2021/03/09 06:34:50;;;;;;;16.20;3.00;;;;;;;;;;5013137;28;20014;-48
2021/03/09 06:37:24;;;;;;;12.35;2.50;;;;;;;;;;5012522;28;20498;-49
2021/03/09 06:40:07;;;;;;;16.35;3.38;;;;;;;;;;5013248;28;20022;-52
2021/03/09 06:42:36;;;;;;;15.07;2.30;;;;;;;;;;5012236;28;20537;-48
2021/03/09 06:45:16;;;;;;;15.35;3.10;;;;;;;;;;5012650;28;20072;-48
2021/03/09 06:47:47;;;;;;;11.60;2.33;;;;;;;;;;5012126;28;20049;-48
2021/03/09 06:50:15;;;;;;;18.30;3.08;;;;;;;;;;5012971;28;20018;-53
2021/03/09 06:52:43;;;;;;;16.52;3.03;;;;;;;;;;5013070;28;20017;-51
2021/03/09 06:55:11;;;;;;;19.50;3.00;;;;;;;;;;5012170;28;20097;-53
2021/03/09 06:57:39;;;;;;;16.90;3.08;;;;;;;;;;5012366;28;20057;-48
2021/03/09 07:00:10;;;;;;;22.08;3.30;;;;;;;;;;5012481;28;20025;-53
2021/03/09 07:02:37;;;;;;;16.40;3.17;;;;;;;;;;5012831;28;20022;-48
2021/03/09 07:05:12;;;;;;;17.73;3.13;;;;;;;;;;5012004;28;20554;-50
2021/03/09 07:07:41;;;;;;;22.33;3.40;;;;;;;;;;5012164;28;20390;-51
2021/03/09 07:10:18;;;;;;;16.58;3.10;;;;;;;;;;5012202;28;20478;-50
2021/03/09 07:12:46;;;;;;;16.77;2.90;;;;;;;;;;5012632;28;20153;-51
2021/03/09 07:15:14;;;;;;;15.43;2.72;;;;;;;;;;5011886;28;20029;-49
2021/03/09 07:17:42;;;;;;;10.60;2.50;;;;;;;;;;5012244;28;20111;-48
2021/03/09 07:20:11;;;;;;;13.80;2.90;;;;;;;;;;5012149;28;20410;-50
2021/03/09 07:22:38;;;;;;;15.27;3.25;;;;;;;;;;5012292;28;20026;-49
2021/03/09 07:25:15;;;;;;;17.17;2.92;;;;;;;;;;5011831;28;20061;-50
2021/03/09 07:28:11;;;;;;;11.77;2.97;;;;;;;;;;5012062;28;20019;-50
2021/03/09 07:30:39;;;;;;;13.05;3.53;;;;;;;;;;4995342;28;20117;-49
2021/03/09 07:33:07;;;;;;;17.15;3.42;;;;;;;;;;5012384;28;20469;-51
2021/03/09 07:35:34;;;;;;;14.32;2.42;;;;;;;;;;5011800;28;20068;-50
2021/03/09 07:38:05;;;;;;;16.98;2.90;;;;;;;;;;5011974;28;20029;-49
2021/03/09 07:40:34;;;;;;;11.93;2.67;;;;;;;;;;5011952;28;20473;-50
2021/03/09 07:43:01;;;;;;;11.13;2.55;;;;;;;;;;5012175;28;20038;-48
2021/03/09 07:45:31;;;;;;;16.50;2.75;;;;;;;;;;5011473;28;20509;-51
2021/03/09 07:48:18;;;;;;;16.58;2.75;;;;;;;;;;5011739;28;20034;-49
2021/03/09 07:50:46;;;;;;;17.58;2.85;;;;;;;;;;5011672;28;20030;-48
2021/03/09 07:53:14;;;;;;;17.55;3.30;;;;;;;;;;5012372;28;20045;-51
2021/03/09 07:55:48;;;;;;;16.73;3.50;;;;;;;;;;5013715;28;20044;-49
2021/03/09 07:58:15;;;;;;;22.02;3.17;;;;;;;;;;5015730;28;20532;-48
2021/03/09 08:00:51;;;;;;;16.02;3.17;;;;;;;;;;5016187;28;20403;-49
2021/03/09 08:03:22;;;;;;;11.75;2.63;;;;;;;;;;5015924;28;20101;-53
2021/03/09 08:05:54;;;;;;;15.15;2.85;;;;;;;;;;5015557;28;20468;-52
2021/03/09 08:08:39;;;;;;;18.63;3.97;;;;;;;;;;5015309;28;20022;-49
2021/03/09 08:11:07;;;;;;;14.32;3.20;;;;;;;;;;5015811;28;20025;-52
2021/03/09 08:13:34;;;;;;;15.25;3.70;;;;;;;;;;5014894;28;20026;-52
2021/03/09 08:16:19;;;;;;;16.25;2.83;;;;;;;;;;5015831;28;20087;-51
2021/03/09 08:18:50;;;;;;;16.55;3.30;;;;;;;;;;5015149;28;20026;-51
2021/03/09 08:21:17;;;;;;;17.63;3.15;;;;;;;;;;5015408;28;20029;-49
2021/03/09 08:23:47;;;;;;;18.38;3.72;;;;;;;;;;4997414;28;20022;-51
2021/03/09 08:26:23;;;;;;;12.90;3.17;;;;;;;;;;5015669;28;20038;-52
2021/03/09 08:28:51;;;;;;;15.50;2.80;;;;;;;;;;5014992;28;20101;-49
2021/03/09 08:31:20;;;;;;;17.48;3.58;;;;;;;;;;5015561;28;20839;-52
2021/03/09 08:33:48;;;;;;;16.83;3.38;;;;;;;;;;5014772;28;20036;-52
2021/03/09 08:36:24;;;;;;;16.25;3.53;;;;;;;;;;5015269;28;20493;-50
2021/03/09 08:39:11;;;;;;;13.38;3.03;;;;;;;;;;5014579;28;20026;-47
2021/03/09 08:41:38;;;;;;;16.85;3.45;;;;;;;;;;5014991;28;20077;-49
2021/03/09 08:44:22;;;;;;;14.75;3.15;;;;;;;;;;5014577;28;20029;-51
2021/03/09 08:46:55;;;;;;;13.27;3.13;;;;;;;;;;5015228;28;20038;-49
2021/03/09 08:49:40;;;;;;;20.38;4.05;;;;;;;;;;4996868;28;20712;-51
2021/03/09 08:52:19;;;;;;;9.75;2.60;;;;;;;;;;5015291;28;20026;-52
2021/03/09 08:54:48;;;;;;;14.23;2.88;;;;;;;;;;5014575;28;20022;-49
2021/03/09 08:57:15;;;;;;;18.05;3.08;;;;;;;;;;5014939;28;20389;-52
2021/03/09 08:59:43;;;;;;;13.73;2.92;;;;;;;;;;5014113;28;20498;-51
2021/03/09 09:02:17;;;;;;;22.52;3.38;;;;;;;;;;5014842;28;20117;-52
2021/03/09 09:04:45;;;;;;;15.50;3.38;;;;;;;;;;5014412;28;20034;-48
2021/03/09 09:07:25;;;;;;;20.25;3.33;;;;;;;;;;5013311;28;20386;-50
2021/03/09 09:09:54;;;;;;;19.90;3.30;;;;;;;;;;5013957;28;20532;-50
2021/03/09 09:12:24;;;;;;;18.48;3.28;;;;;;;;;;5014790;28;20064;-50
2021/03/09 09:15:20;;;;;;;15.93;2.92;;;;;;;;;;5014217;28;20037;-50
2021/03/09 09:17:49;;;;;;;17.65;3.55;;;;;;;;;;4997982;28;20038;-51
2021/03/09 09:20:17;;;;;;;17.02;2.90;;;;;;;;;;5013934;28;20030;-52
2021/03/09 09:22:44;;;;;;;13.38;3.13;;;;;;;;;;5014580;28;20450;-51
2021/03/09 09:25:13;;;;;;;15.85;3.75;;;;;;;;;;4996135;28;20034;-52
2021/03/09 09:27:49;;;;;;;19.08;3.17;;;;;;;;;;5014355;28;20101;-49
2021/03/09 09:30:17;;;;;;;20.27;4.22;;;;;;;;;;5013897;28;20040;-46
2021/03/09 09:32:52;;;;;;;16.10;3.35;;;;;;;;;;5014329;28;20026;-49
2021/03/09 09:35:20;;;;;;;22.45;3.72;;;;;;;;;;4996151;28;20033;-49
2021/03/09 09:37:52;;;;;;;20.42;3.05;;;;;;;;;;5014120;28;20096;-48
2021/03/09 09:40:21;;;;;;;19.50;3.63;;;;;;;;;;5013797;28;20029;-49
2021/03/09 09:43:17;;;;;;;14.50;3.05;;;;;;;;;;5014048;28;20288;-49
2021/03/09 09:45:45;;;;;;;23.02;4.38;;;;;;;;;;4996805;28;20046;-48
2021/03/09 09:48:16;;;;;;;12.98;3.67;;;;;;;;;;5014062;28;20087;-49
2021/03/09 09:50:50;;;;;;;23.08;3.45;;;;;;;;;;5013695;28;20079;-46
2021/03/09 09:53:30;;;;;;;20.13;3.75;;;;;;;;;;5014123;28;20034;-49
2021/03/09 09:55:57;;;;;;;21.15;4.35;;;;;;;;;;5013479;28;20029;-48
2021/03/09 09:58:40;;;;;;;18.60;3.65;;;;;;;;;;5013732;28;20398;-46
2021/03/09 10:01:07;;;;;;;30.40;4.30;;;;;;;;;;5013287;28;20029;-46
2021/03/09 10:03:34;;;;;;;27.80;3.42;;;;;;;;;;5013437;28;20385;-49
2021/03/09 10:06:16;;;;;;;28.50;4.07;;;;;;;;;;5013487;28;20452;-48
2021/03/09 10:08:44;;;;;;;17.73;3.47;;;;;;;;;;5013244;28;20026;-46
2021/03/09 10:11:11;;;;;;;26.08;3.60;;;;;;;;;;5013519;28;20022;-48
2021/03/09 10:13:39;;;;;;;27.80;3.95;;;;;;;;;;5012983;28;20034;-53
2021/03/09 10:16:06;;;;;;;17.48;3.47;;;;;;;;;;5013413;28;20038;-50
2021/03/09 10:18:34;;;;;;;21.38;3.83;;;;;;;;;;5012628;28;20109;-47
2021/03/09 10:21:03;;;;;;;23.08;3.90;;;;;;;;;;4995615;28;20041;-47
2021/03/09 10:23:31;;;;;;;25.23;3.90;;;;;;;;;;5012880;28;20026;-49
2021/03/09 10:25:59;;;;;;;26.80;3.50;;;;;;;;;;5013191;28;20038;-50
2021/03/09 10:28:26;;;;;;;28.73;4.30;;;;;;;;;;5012777;28;20060;-48
2021/03/09 10:30:54;;;;;;;33.40;5.10;;;;;;;;;;5013232;28;20034;-48
2021/03/09 10:33:21;;;;;;;22.40;4.05;;;;;;;;;;5012746;28;20025;-51
2021/03/09 10:36:05;;;;;;;24.50;4.03;;;;;;;;;;5012827;28;20375;-50
2021/03/09 10:38:32;;;;;;;29.13;4.20;;;;;;;;;;5012656;28;20060;-51
2021/03/09 10:40:59;;;;;;;26.08;4.25;;;;;;;;;;5012849;28;20034;-48
2021/03/09 10:43:45;;;;;;;23.05;3.33;;;;;;;;;;5012501;28;20026;-52
2021/03/09 10:46:13;;;;;;;21.23;3.53;;;;;;;;;;5012859;28;20046;-49
2021/03/09 10:48:41;;;;;;;30.77;3.92;;;;;;;;;;5009957;28;20018;-50
2021/03/09 10:51:18;;;;;;;28.13;4.50;;;;;;;;;;5010805;28;20022;-50
2021/03/09 10:53:45;;;;;;;28.85;4.03;;;;;;;;;;5010649;28;20030;-49
2021/03/09 10:56:12;;;;;;;35.42;4.82;;;;;;;;;;5009732;28;20021;-47
2021/03/09 10:58:39;;;;;;;18.70;3.88;;;;;;;;;;5001449;28;20026;-48
2021/03/09 11:01:07;;;;;;;26.02;4.00;;;;;;;;;;5009364;28;20390;-47
2021/03/09 11:03:34;;;;;;;35.83;4.03;;;;;;;;;;5009270;28;20034;-47
2021/03/09 11:06:01;;;;;;;25.38;3.97;;;;;;;;;;5007950;28;20053;-47
2021/03/09 11:08:28;;;;;;;23.27;4.65;;;;;;;;;;5010197;28;20046;-49
2021/03/09 11:10:57;;;;;;;39.17;4.75;;;;;;;;;;5003854;28;20100;-50
2021/03/09 11:13:24;;;;;;;140.63;8.30;;;;;;;;;;5008772;28;20033;-56
2021/03/09 11:15:51;;;;;;;44.40;5.20;;;;;;;;;;5010714;28;20072;-63
2021/03/09 11:18:18;;;;;;;48.60;5.90;;;;;;;;;;5008826;28;20160;-54
2021/03/09 11:20:45;;;;;;;103.35;11.27;;;;;;;;;;5010933;28;20478;-53
2021/03/09 11:23:12;;;;;;;111.43;10.68;;;;;;;;;;5010684;28;20022;-49
2021/03/09 11:25:39;;;;;;;63.58;7.97;;;;;;;;;;5009145;28;20057;-50
2021/03/09 11:28:06;;;;;;;38.30;5.22;;;;;;;;;;5002862;28;20014;-51
2021/03/09 11:30:33;;;;;;;31.58;4.82;;;;;;;;;;4997715;28;20057;-54
2021/03/09 11:33:00;;;;;;;38.85;5.25;;;;;;;;;;5002925;28;20097;-54
2021/03/09 11:35:27;;;;;;;33.55;4.50;;;;;;;;;;5007138;28;20026;-50
2021/03/09 11:37:54;;;;;;;35.95;5.45;;;;;;;;;;5003045;28;20393;-62
2021/03/09 11:40:21;;;;;;;34.83;5.20;;;;;;;;;;5007347;28;20133;-57
2021/03/09 11:42:48;;;;;;;27.67;5.43;;;;;;;;;;5005879;28;20520;-59
2021/03/09 11:45:16;;;;;;;31.83;4.85;;;;;;;;;;5001490;28;20048;-56
2021/03/09 11:47:43;;;;;;;29.95;6.05;;;;;;;;;;4997172;28;20029;-62
2021/03/09 11:50:10;;;;;;;36.20;5.40;;;;;;;;;;5001125;28;20034;-62
2021/03/09 11:52:40;;;;;;;24.08;4.45;;;;;;;;;;5007936;28;20144;-57
2021/03/09 11:55:08;;;;;;;40.28;5.57;;;;;;;;;;5002387;28;20037;-53
2021/03/09 11:57:35;;;;;;;26.55;4.45;;;;;;;;;;4998732;28;20022;-53
2021/03/09 12:00:02;;;;;;;34.28;5.38;;;;;;;;;;5002109;28;20358;-50
2021/03/09 12:02:29;;;;;;;35.08;4.85;;;;;;;;;;5005802;28;20018;-53
2021/03/09 12:04:56;;;;;;;38.58;5.30;;;;;;;;;;5003012;28;20042;-60
2021/03/09 12:07:23;;;;;;;31.60;4.93;;;;;;;;;;4985198;28;20069;-49
2021/03/09 12:09:50;;;;;;;21.30;3.92;;;;;;;;;;5004530;28;20030;-57
2021/03/09 12:12:18;;;;;;;22.65;4.30;;;;;;;;;;5006221;28;20109;-59
2021/03/09 12:14:45;;;;;;;26.83;5.13;;;;;;;;;;4997182;28;20786;-53
2021/03/09 12:17:12;;;;;;;22.40;4.10;;;;;;;;;;4994078;28;20030;-51
2021/03/09 12:19:39;;;;;;;28.52;4.68;;;;;;;;;;5001566;28;20014;-53
2021/03/09 12:22:07;;;;;;;26.50;4.65;;;;;;;;;;4996214;28;20057;-52
2021/03/09 12:24:34;;;;;;;24.73;4.63;;;;;;;;;;4999918;28;20019;-54
2021/03/09 12:27:01;;;;;;;27.83;5.13;;;;;;;;;;5000467;28;20014;-59
2021/03/09 12:29:29;;;;;;;27.05;4.32;;;;;;;;;;5002224;28;20393;-57
2021/03/09 12:31:56;;;;;;;20.15;4.60;;;;;;;;;;4998577;28;20386;-62
2021/03/09 12:34:23;;;;;;;28.17;4.45;;;;;;;;;;4994892;28;20046;-53
2021/03/09 12:36:50;;;;;;;43.70;5.95;;;;;;;;;;5003474;28;20030;-57
2021/03/09 12:39:17;;;;;;;26.15;4.72;;;;;;;;;;5008639;28;20022;-50
2021/03/09 12:41:44;;;;;;;32.38;4.45;;;;;;;;;;5003941;28;20537;-60
2021/03/09 12:44:11;;;;;;;30.92;5.65;;;;;;;;;;5003387;28;20061;-57
2021/03/09 12:46:38;;;;;;;40.60;4.57;;;;;;;;;;4992591;28;20035;-53
2021/03/09 12:49:04;;;;;;;32.30;4.75;;;;;;;;;;4987769;28;20022;-60
2021/03/09 12:51:33;;;;;;;42.58;5.22;;;;;;;;;;4992457;28;20037;-56
2021/03/09 12:54:00;;;;;;;37.15;5.20;;;;;;;;;;5003066;28;20026;-56
2021/03/09 12:56:26;;;;;;;29.27;4.50;;;;;;;;;;4994373;28;20018;-61
2021/03/09 12:58:54;;;;;;;32.78;4.97;;;;;;;;;;5002176;28;20112;-53
2021/03/09 13:01:21;;;;;;;36.63;5.05;;;;;;;;;;4997382;28;20060;-57
2021/03/09 13:03:49;;;;;;;37.95;6.10;;;;;;;;;;5002722;28;20022;-61
2021/03/09 13:06:16;;;;;;;52.42;6.82;;;;;;;;;;5004142;28;20060;-57
2021/03/09 13:08:43;;;;;;;53.03;5.30;;;;;;;;;;5009403;28;20486;-58
2021/03/09 13:11:10;;;;;;;54.45;6.05;;;;;;;;;;5003884;28;20026;-57
2021/03/09 13:13:37;;;;;;;46.70;5.78;;;;;;;;;;5007226;28;20022;-60
2021/03/09 13:16:04;;;;;;;40.10;6.30;;;;;;;;;;5000171;28;20026;-57
2021/03/09 13:18:31;;;;;;;43.80;7.07;;;;;;;;;;5004181;28;20093;-55
2021/03/09 13:20:58;;;;;;;61.78;7.25;;;;;;;;;;5008255;28;20394;-58
2021/03/09 13:23:25;;;;;;;42.53;5.45;;;;;;;;;;5001001;28;20026;-50
2021/03/09 13:25:52;;;;;;;39.33;6.30;;;;;;;;;;5004104;28;20041;-52
2021/03/09 13:28:19;;;;;;;36.13;5.68;;;;;;;;;;5000627;28;20029;-52
2021/03/09 13:30:46;;;;;;;42.78;7.07;;;;;;;;;;5006498;28;20052;-57
2021/03/09 13:33:14;;;;;;;34.70;5.78;;;;;;;;;;5009337;28;20029;-57
2021/03/09 13:35:41;;;;;;;34.03;5.78;;;;;;;;;;5009115;28;20037;-50
2021/03/09 13:38:07;;;;;;;38.58;5.40;;;;;;;;;;4999038;28;20517;-51
2021/03/09 13:40:34;;;;;;;42.08;6.65;;;;;;;;;;5010373;28;20030;-50
2021/03/09 13:43:02;;;;;;;40.20;6.55;;;;;;;;;;5000838;28;20038;-59
2021/03/09 13:45:30;;;;;;;37.97;7.03;;;;;;;;;;5008213;28;20583;-55
2021/03/09 13:47:57;;;;;;;36.92;5.45;;;;;;;;;;5008466;28;20092;-52
2021/03/09 13:50:24;;;;;;;31.15;5.38;;;;;;;;;;5010222;28;20026;-52
2021/03/09 13:52:52;;;;;;;34.75;5.78;;;;;;;;;;5009639;28;20087;-55
2021/03/09 13:55:19;;;;;;;37.20;6.53;;;;;;;;;;5007981;28;20026;-54
2021/03/09 13:57:46;;;;;;;40.33;5.93;;;;;;;;;;5008528;28;20759;-51
2021/03/09 14:00:13;;;;;;;32.47;5.43;;;;;;;;;;5007473;28;20068;-60
2021/03/09 14:02:40;;;;;;;32.00;5.72;;;;;;;;;;5008132;28;20022;-57
2021/03/09 14:05:08;;;;;;;36.00;7.00;;;;;;;;;;5010821;28;20103;-56
2021/03/09 14:07:35;;;;;;;45.60;6.50;;;;;;;;;;5006870;28;20088;-61
2021/03/09 14:10:02;;;;;;;38.03;6.30;;;;;;;;;;5009479;28;20563;-61
2021/03/09 14:12:30;;;;;;;35.95;5.93;;;;;;;;;;4992779;28;20041;-55
2021/03/09 14:14:56;;;;;;;40.33;6.82;;;;;;;;;;5009884;28;20030;-53
2021/03/09 14:17:24;;;;;;;37.38;5.78;;;;;;;;;;5010178;28;20046;-53
2021/03/09 14:19:51;;;;;;;49.22;7.53;;;;;;;;;;5006176;28;20105;-52
2021/03/09 14:22:18;;;;;;;51.42;7.00;;;;;;;;;;5009147;28;20032;-58
2021/03/09 14:24:46;;;;;;;50.70;7.63;;;;;;;;;;5006669;28;20037;-52
2021/03/09 14:27:14;;;;;;;53.50;6.70;;;;;;;;;;5009647;28;20033;-56
2021/03/09 14:29:42;;;;;;;43.55;6.93;;;;;;;;;;5005955;28;20034;-56
2021/03/09 14:32:09;;;;;;;43.25;6.53;;;;;;;;;;5008196;28;20110;-52
2021/03/09 14:34:36;;;;;;;57.30;7.57;;;;;;;;;;5004942;28;20021;-52
2021/03/09 14:37:03;;;;;;;72.35;9.73;;;;;;;;;;5005848;28;20022;-61
2021/03/09 14:39:30;;;;;;;58.33;8.70;;;;;;;;;;5009181;28;20030;-54